createdAt,value
2016-08-24T00:00:53.187Z,0
2016-08-24T00:01:53.895Z,0
2016-08-24T00:02:53.894Z,0
2016-08-24T00:03:53.899Z,0
2016-08-24T00:04:53.896Z,0
2016-08-24T00:05:53.191Z,0
2016-08-24T00:06:53.196Z,0
2016-08-24T00:07:53.191Z,0
2016-08-24T00:08:53.191Z,0
2016-08-24T00:09:53.907Z,0
2016-08-24T00:10:53.899Z,0
2016-08-24T00:11:53.195Z,0
2016-08-24T00:12:53.208Z,0
2016-08-24T00:13:53.196Z,0
2016-08-24T00:14:53.195Z,0
2016-08-24T00:15:53.900Z,0
2016-08-24T00:16:53.896Z,0
2016-08-24T00:17:53.895Z,0
2016-08-24T00:18:53.196Z,0
2016-08-24T00:19:53.900Z,0
2016-08-24T00:20:53.899Z,0
2016-08-24T00:21:53.904Z,0
2016-08-24T00:22:53.192Z,0
2016-08-24T00:23:53.903Z,0
2016-08-24T00:24:53.356Z,0
2016-08-24T00:25:53.904Z,0
2016-08-24T00:26:53.908Z,0
2016-08-24T00:27:53.912Z,0
2016-08-24T00:28:53.908Z,0
2016-08-24T00:29:53.904Z,0
2016-08-24T00:30:53.917Z,0
2016-08-24T00:31:53.908Z,0
2016-08-24T00:32:52.501Z,0
2016-08-24T00:33:53.956Z,0
2016-08-24T00:34:53.904Z,0
2016-08-24T00:35:53.904Z,0
2016-08-24T00:36:53.909Z,0
2016-08-24T00:37:53.904Z,0
2016-08-24T00:38:53.909Z,0
2016-08-24T00:39:52.500Z,0
2016-08-24T00:40:53.909Z,0
2016-08-24T00:41:53.205Z,0
2016-08-24T00:42:53.916Z,0
2016-08-24T00:43:53.909Z,0
2016-08-24T00:44:53.909Z,0
2016-08-24T00:46:06.652Z,0
2016-08-24T00:46:53.913Z,0
2016-08-24T00:47:53.205Z,0
2016-08-24T00:48:53.213Z,0
2016-08-24T00:49:53.925Z,0
2016-08-24T00:50:53.215Z,0
2016-08-24T00:51:53.909Z,0
2016-08-24T00:52:53.205Z,0
2016-08-24T00:53:52.513Z,0
2016-08-24T00:54:53.221Z,0
2016-08-24T00:55:53.205Z,0
2016-08-24T00:56:53.920Z,0
2016-08-24T00:57:53.217Z,0
2016-08-24T00:58:53.912Z,0
2016-08-24T00:59:53.912Z,0
2016-08-24T01:00:53.209Z,0
2016-08-24T01:01:53.218Z,0
2016-08-24T01:02:53.209Z,0
2016-08-24T01:03:53.921Z,0
2016-08-24T01:04:53.913Z,0
2016-08-24T01:05:53.913Z,0
2016-08-24T01:06:52.514Z,0
2016-08-24T01:07:53.921Z,0
2016-08-24T01:08:53.914Z,0
2016-08-24T01:09:53.926Z,0
2016-08-24T01:10:53.929Z,0
2016-08-24T01:11:53.918Z,0
2016-08-24T01:12:51.806Z,0
2016-08-24T01:13:53.925Z,0
2016-08-24T01:14:53.914Z,0
2016-08-24T01:15:53.913Z,0
2016-08-24T01:16:53.917Z,0
2016-08-24T01:17:53.914Z,0
2016-08-24T01:18:53.913Z,0
2016-08-24T01:19:53.218Z,0
2016-08-24T01:20:53.914Z,0
2016-08-24T01:21:53.914Z,0
2016-08-24T01:22:52.510Z,0
2016-08-24T01:23:53.927Z,0
2016-08-24T01:24:53.918Z,0
2016-08-24T01:25:53.213Z,0
2016-08-24T01:26:53.918Z,0
2016-08-24T01:27:53.918Z,0
2016-08-24T01:28:53.919Z,0
2016-08-24T01:29:53.918Z,0
2016-08-24T01:30:53.935Z,0
2016-08-24T01:31:53.217Z,0
2016-08-24T01:32:53.925Z,0
2016-08-24T01:33:53.918Z,0
2016-08-24T01:34:53.219Z,0
2016-08-24T01:35:53.918Z,0
2016-08-24T01:36:53.919Z,0
2016-08-24T01:37:53.213Z,0
2016-08-24T01:38:53.931Z,0
2016-08-24T01:39:53.919Z,0
2016-08-24T01:40:53.918Z,0
2016-08-24T01:41:53.919Z,0
2016-08-24T01:42:53.214Z,0
2016-08-24T01:43:53.214Z,0
2016-08-24T01:44:53.947Z,0
2016-08-24T01:45:52.511Z,0
2016-08-24T01:46:53.918Z,0
2016-08-24T01:47:53.918Z,0
2016-08-24T01:48:53.919Z,0
2016-08-24T01:49:53.919Z,0
2016-08-24T01:50:53.919Z,0
2016-08-24T01:51:53.923Z,0
2016-08-24T01:52:53.932Z,0
2016-08-24T01:53:53.919Z,0
2016-08-24T01:54:53.922Z,0
2016-08-24T01:55:53.227Z,0
2016-08-24T01:56:53.226Z,0
2016-08-24T01:57:53.919Z,0
2016-08-24T01:58:53.920Z,0
2016-08-24T01:59:53.920Z,0
2016-08-24T02:00:53.919Z,0
2016-08-24T02:01:53.920Z,0
2016-08-24T02:02:53.919Z,0
2016-08-24T02:03:53.924Z,0
2016-08-24T02:04:53.216Z,0
2016-08-24T02:05:53.919Z,0
2016-08-24T02:06:53.928Z,0
2016-08-24T02:07:53.931Z,0
2016-08-24T02:08:53.919Z,0
2016-08-24T02:09:53.928Z,0
2016-08-24T02:10:53.931Z,0
2016-08-24T02:11:53.215Z,0
2016-08-24T02:12:51.811Z,0
2016-08-24T02:13:53.223Z,0
2016-08-24T02:14:53.927Z,0
2016-08-24T02:15:52.520Z,0
2016-08-24T02:16:53.924Z,0
2016-08-24T02:17:53.915Z,0
2016-08-24T02:18:53.920Z,0
2016-08-24T02:19:53.920Z,0
2016-08-24T02:20:53.217Z,0
2016-08-24T02:21:53.920Z,0
2016-08-24T02:22:53.916Z,0
2016-08-24T02:23:53.228Z,0
2016-08-24T02:24:53.920Z,0
2016-08-24T02:25:53.924Z,0
2016-08-24T02:26:53.920Z,0
2016-08-24T02:27:53.920Z,0
2016-08-24T02:28:53.932Z,0
2016-08-24T02:29:53.220Z,0
2016-08-24T02:30:53.219Z,0
2016-08-24T02:31:53.935Z,0
2016-08-24T02:32:53.921Z,0
2016-08-24T02:33:53.472Z,0
2016-08-24T02:34:53.916Z,0
2016-08-24T02:35:53.916Z,0
2016-08-24T02:36:52.513Z,0
2016-08-24T02:37:53.209Z,0
2016-08-24T02:38:53.916Z,0
2016-08-24T02:39:53.920Z,0
2016-08-24T02:40:53.917Z,0
2016-08-24T02:41:53.220Z,0
2016-08-24T02:42:53.924Z,0
2016-08-24T02:43:53.913Z,0
2016-08-24T02:44:53.924Z,0
2016-08-24T02:45:53.912Z,0
2016-08-24T02:46:53.925Z,0
2016-08-24T02:47:53.924Z,0
2016-08-24T02:48:53.224Z,0
2016-08-24T02:49:53.221Z,0
2016-08-24T02:50:53.213Z,0
2016-08-24T02:51:53.916Z,0
2016-08-24T02:52:53.914Z,0
2016-08-24T02:53:53.913Z,0
2016-08-24T02:54:53.918Z,0
2016-08-24T02:55:53.213Z,0
2016-08-24T02:56:51.809Z,0
2016-08-24T02:57:53.933Z,0
2016-08-24T02:58:53.917Z,0
2016-08-24T02:59:53.917Z,0
2016-08-24T03:00:53.213Z,0
2016-08-24T03:01:53.225Z,0
2016-08-24T03:02:53.921Z,0
2016-08-24T03:03:53.914Z,0
2016-08-24T03:04:53.914Z,0
2016-08-24T03:05:53.913Z,0
2016-08-24T03:06:53.218Z,0
2016-08-24T03:07:53.910Z,0
2016-08-24T03:08:52.509Z,0
2016-08-24T03:09:53.917Z,0
2016-08-24T03:10:52.505Z,0
2016-08-24T03:11:53.910Z,0
2016-08-24T03:12:53.922Z,0
2016-08-24T03:13:53.910Z,0
2016-08-24T03:14:53.909Z,0
2016-08-24T03:15:53.910Z,0
2016-08-24T03:16:53.916Z,0
2016-08-24T03:17:53.909Z,0
2016-08-24T03:18:53.206Z,0
2016-08-24T03:19:53.926Z,0
2016-08-24T03:20:53.914Z,0
2016-08-24T03:21:53.206Z,0
2016-08-24T03:22:53.202Z,0
2016-08-24T03:23:53.906Z,0
2016-08-24T03:24:53.902Z,0
2016-08-24T03:25:53.907Z,0
2016-08-24T03:26:53.906Z,0
2016-08-24T03:27:53.906Z,0
2016-08-24T03:28:53.919Z,0
2016-08-24T03:29:53.906Z,0
2016-08-24T03:30:53.907Z,0
2016-08-24T03:31:53.907Z,0
2016-08-24T03:32:53.902Z,0
2016-08-24T03:33:53.203Z,0
2016-08-24T03:34:53.902Z,0
2016-08-24T03:35:53.906Z,0
2016-08-24T03:36:53.907Z,0
2016-08-24T03:37:53.198Z,0
2016-08-24T03:38:53.903Z,0
2016-08-24T03:39:53.210Z,0
2016-08-24T03:40:53.902Z,0
2016-08-24T03:41:53.907Z,0
2016-08-24T03:42:53.195Z,0
2016-08-24T03:43:53.899Z,0
2016-08-24T03:44:53.899Z,0
2016-08-24T03:45:53.898Z,0
2016-08-24T03:46:53.899Z,0
2016-08-24T03:47:53.195Z,0
2016-08-24T03:48:53.898Z,0
2016-08-24T03:49:53.903Z,0
2016-08-24T03:50:53.209Z,0
2016-08-24T03:51:53.898Z,0
2016-08-24T03:52:53.898Z,0
2016-08-24T03:53:53.203Z,0
2016-08-24T03:54:53.898Z,0
2016-08-24T03:55:53.191Z,0
2016-08-24T03:56:53.196Z,0
2016-08-24T03:57:53.894Z,0
2016-08-24T03:58:53.896Z,0
2016-08-24T03:59:53.907Z,0
2016-08-24T04:00:53.894Z,0
2016-08-24T04:01:53.899Z,0
2016-08-24T04:02:53.895Z,0
2016-08-24T04:03:53.895Z,0
2016-08-24T04:04:53.888Z,0
2016-08-24T04:05:53.199Z,0
2016-08-24T04:06:53.891Z,0
2016-08-24T04:07:53.191Z,0
2016-08-24T04:08:53.199Z,0
2016-08-24T04:09:53.188Z,0
2016-08-24T04:10:53.888Z,0
2016-08-24T04:11:53.188Z,0
2016-08-24T04:12:53.891Z,0
2016-08-24T04:13:53.892Z,0
2016-08-24T04:14:53.888Z,0
2016-08-24T04:15:53.887Z,0
2016-08-24T04:16:53.888Z,0
2016-08-24T04:17:52.480Z,0
2016-08-24T04:18:53.879Z,0
2016-08-24T04:19:53.884Z,0
2016-08-24T04:20:53.883Z,0
2016-08-24T04:21:53.884Z,0
2016-08-24T04:22:53.884Z,0
2016-08-24T04:23:53.888Z,0
2016-08-24T04:24:53.180Z,0
2016-08-24T04:25:52.476Z,0
2016-08-24T04:26:53.180Z,5
2016-08-24T04:27:53.881Z,5
2016-08-24T04:28:53.177Z,5
2016-08-24T04:29:53.885Z,5
2016-08-24T04:30:53.884Z,5
2016-08-24T04:31:53.177Z,5
2016-08-24T04:32:53.880Z,5
2016-08-24T04:33:53.272Z,5
2016-08-24T04:34:53.179Z,5
2016-08-24T04:35:53.191Z,10
2016-08-24T04:36:53.877Z,10
2016-08-24T04:37:53.873Z,10
2016-08-24T04:38:53.172Z,10
2016-08-24T04:39:53.173Z,10
2016-08-24T04:40:53.885Z,10
2016-08-24T04:41:53.168Z,10
2016-08-24T04:42:53.169Z,15
2016-08-24T04:43:53.169Z,30
2016-08-24T04:44:53.873Z,45
2016-08-24T04:45:53.877Z,55
2016-08-24T04:46:52.470Z,55
2016-08-24T04:47:53.886Z,60
2016-08-24T04:48:53.873Z,65
2016-08-24T04:49:53.164Z,70
2016-08-24T04:50:53.884Z,75
2016-08-24T04:51:53.168Z,80
2016-08-24T04:52:53.869Z,80
2016-08-24T04:53:53.869Z,85
2016-08-24T04:54:53.170Z,95
2016-08-24T04:55:53.869Z,100
2016-08-24T04:56:53.165Z,105
2016-08-24T04:57:53.870Z,110
2016-08-24T04:58:53.869Z,115
2016-08-24T04:59:53.878Z,120
2016-08-24T05:00:53.169Z,120
2016-08-24T05:01:53.869Z,125
2016-08-24T05:02:53.869Z,130
2016-08-24T05:03:53.169Z,135
2016-08-24T05:04:53.869Z,140
2016-08-24T05:05:53.874Z,145
2016-08-24T05:06:53.870Z,150
2016-08-24T05:07:53.869Z,160
2016-08-24T05:08:52.462Z,170
2016-08-24T05:09:53.870Z,175
2016-08-24T05:10:53.869Z,180
2016-08-24T05:11:53.166Z,190
2016-08-24T05:12:52.470Z,200
2016-08-24T05:13:52.470Z,200
2016-08-24T05:14:53.874Z,200
2016-08-24T05:15:53.182Z,205
2016-08-24T05:16:53.881Z,210
2016-08-24T05:17:53.182Z,220
2016-08-24T05:18:53.182Z,230
2016-08-24T05:19:53.873Z,240
2016-08-24T05:20:53.885Z,245
2016-08-24T05:21:53.882Z,255
2016-08-24T05:22:53.894Z,260
2016-08-24T05:23:53.182Z,265
2016-08-24T05:24:53.886Z,265
2016-08-24T05:25:53.886Z,265
2016-08-24T05:26:53.890Z,275
2016-08-24T05:27:53.891Z,280
2016-08-24T05:28:53.893Z,285
2016-08-24T05:29:53.895Z,290
2016-08-24T05:30:53.899Z,305
2016-08-24T05:31:53.906Z,325
2016-08-24T05:32:53.910Z,325
2016-08-24T05:33:53.907Z,330
2016-08-24T05:34:53.910Z,340
2016-08-24T05:35:53.919Z,345
2016-08-24T05:36:53.207Z,350
2016-08-24T05:37:53.918Z,375
2016-08-24T05:38:53.918Z,385
2016-08-24T05:39:53.931Z,375
2016-08-24T05:40:53.239Z,385
2016-08-24T05:41:53.223Z,395
2016-08-24T05:42:53.930Z,400
2016-08-24T05:43:53.931Z,395
2016-08-24T05:44:52.531Z,405
2016-08-24T05:45:52.543Z,415
2016-08-24T05:46:53.944Z,420
2016-08-24T05:47:53.960Z,415
2016-08-24T05:48:53.243Z,420
2016-08-24T05:49:51.843Z,435
2016-08-24T05:50:53.968Z,435
2016-08-24T05:51:53.960Z,450
2016-08-24T05:52:53.963Z,445
2016-08-24T05:53:53.264Z,475
2016-08-24T05:54:53.968Z,475
2016-08-24T05:55:53.983Z,470
2016-08-24T05:56:53.984Z,485
2016-08-24T05:57:53.980Z,485
2016-08-24T05:58:52.576Z,490
2016-08-24T05:59:53.300Z,505
2016-08-24T06:00:53.992Z,540
2016-08-24T06:01:52.587Z,540
2016-08-24T06:02:53.999Z,525
2016-08-24T06:03:52.592Z,530
2016-08-24T06:04:53.324Z,540
2016-08-24T06:05:53.308Z,530
2016-08-24T06:06:54.036Z,540
2016-08-24T06:07:54.024Z,565
2016-08-24T06:08:54.028Z,565
2016-08-24T06:09:54.044Z,585
2016-08-24T06:10:53.333Z,600
2016-08-24T06:11:54.054Z,580
2016-08-24T06:12:54.048Z,575
2016-08-24T06:13:53.348Z,585
2016-08-24T06:14:54.056Z,610
2016-08-24T06:15:53.373Z,595
2016-08-24T06:16:54.080Z,600
2016-08-24T06:17:54.081Z,625
2016-08-24T06:18:54.080Z,615
2016-08-24T06:19:54.085Z,625
2016-08-24T06:20:54.088Z,620
2016-08-24T06:21:54.097Z,630
2016-08-24T06:22:53.401Z,660
2016-08-24T06:23:54.104Z,660
2016-08-24T06:24:54.109Z,665
2016-08-24T06:25:53.417Z,655
2016-08-24T06:26:52.712Z,670
2016-08-24T06:27:54.125Z,690
2016-08-24T06:28:53.428Z,690
2016-08-24T06:29:54.136Z,670
2016-08-24T06:30:53.445Z,675
2016-08-24T06:31:53.444Z,670
2016-08-24T06:32:54.156Z,665
2016-08-24T06:33:53.561Z,660
2016-08-24T06:34:53.477Z,690
2016-08-24T06:35:53.477Z,715
2016-08-24T06:36:54.190Z,695
2016-08-24T06:37:54.185Z,700
2016-08-24T06:38:54.201Z,730
2016-08-24T06:39:53.493Z,710
2016-08-24T06:40:54.205Z,710
2016-08-24T06:41:53.521Z,730
2016-08-24T06:42:53.521Z,730
2016-08-24T06:43:54.229Z,740
2016-08-24T06:44:53.545Z,755
2016-08-24T06:45:53.532Z,740
2016-08-24T06:46:54.245Z,730
2016-08-24T06:47:54.257Z,745
2016-08-24T06:48:54.257Z,755
2016-08-24T06:49:54.274Z,795
2016-08-24T06:50:54.277Z,775
2016-08-24T06:51:53.573Z,785
2016-08-24T06:52:52.177Z,810
2016-08-24T06:53:54.294Z,800
2016-08-24T06:54:54.310Z,800
2016-08-24T06:55:54.305Z,780
2016-08-24T06:56:54.314Z,815
2016-08-24T06:57:53.618Z,840
2016-08-24T06:58:52.930Z,810
2016-08-24T06:59:52.930Z,840
2016-08-24T07:00:54.350Z,825
2016-08-24T07:01:54.349Z,825
2016-08-24T07:02:54.362Z,835
2016-08-24T07:03:53.665Z,880
2016-08-24T07:04:53.669Z,940
2016-08-24T07:05:53.685Z,790
2016-08-24T07:06:54.390Z,795
2016-08-24T07:07:54.398Z,900
2016-08-24T07:08:53.702Z,845
2016-08-24T07:09:54.025Z,870
2016-08-24T07:10:54.430Z,930
2016-08-24T07:11:54.434Z,875
2016-08-24T07:12:54.434Z,850
2016-08-24T07:13:53.738Z,835
2016-08-24T07:14:54.458Z,900
2016-08-24T07:15:53.763Z,895
2016-08-24T07:16:54.474Z,890
2016-08-24T07:17:54.478Z,885
2016-08-24T07:18:52.381Z,940
2016-08-24T07:19:53.789Z,965
2016-08-24T07:20:54.498Z,935
2016-08-24T07:21:53.813Z,955
2016-08-24T07:22:53.809Z,925
2016-08-24T07:23:53.826Z,900
2016-08-24T07:24:53.830Z,960
2016-08-24T07:25:53.846Z,935
2016-08-24T07:26:54.558Z,970
2016-08-24T07:27:54.562Z,980
2016-08-24T07:28:54.569Z,950
2016-08-24T07:29:54.574Z,935
2016-08-24T07:30:54.594Z,975
2016-08-24T07:31:54.638Z,930
2016-08-24T07:32:54.598Z,935
2016-08-24T07:33:53.406Z,1005
2016-08-24T07:34:53.930Z,1015
2016-08-24T07:35:53.218Z,1005
2016-08-24T07:36:54.635Z,1015
2016-08-24T07:37:53.239Z,1120
2016-08-24T07:38:54.651Z,1105
2016-08-24T07:39:54.666Z,1075
2016-08-24T07:40:53.966Z,1120
2016-08-24T07:41:53.974Z,1155
2016-08-24T07:42:53.983Z,1085
2016-08-24T07:43:54.721Z,1110
2016-08-24T07:44:54.703Z,1105
2016-08-24T07:45:54.007Z,1120
2016-08-24T07:46:54.031Z,1065
2016-08-24T07:47:54.737Z,1065
2016-08-24T07:48:54.034Z,1060
2016-08-24T07:49:54.747Z,1105
2016-08-24T07:50:54.766Z,1020
2016-08-24T07:51:54.071Z,1015
2016-08-24T07:52:53.367Z,1045
2016-08-24T07:53:54.078Z,1080
2016-08-24T07:54:54.791Z,1055
2016-08-24T07:55:54.802Z,1140
2016-08-24T07:56:54.815Z,1085
2016-08-24T07:57:54.826Z,1015
2016-08-24T07:58:53.427Z,1060
2016-08-24T07:59:54.130Z,1065
2016-08-24T08:00:53.443Z,995
2016-08-24T08:01:54.863Z,1015
2016-08-24T08:02:54.170Z,1055
2016-08-24T08:03:53.467Z,1020
2016-08-24T08:04:54.203Z,1010
2016-08-24T08:05:54.890Z,1080
2016-08-24T08:06:54.899Z,1040
2016-08-24T08:07:54.911Z,990
2016-08-24T08:08:54.918Z,1080
2016-08-24T08:09:54.927Z,1110
2016-08-24T08:10:54.935Z,1035
2016-08-24T08:11:54.271Z,1030
2016-08-24T08:12:54.955Z,1065
2016-08-24T08:13:54.971Z,1025
2016-08-24T08:14:54.267Z,1075
2016-08-24T08:15:54.980Z,1140
2016-08-24T08:16:54.290Z,1250
2016-08-24T08:17:54.295Z,1310
2016-08-24T08:18:53.599Z,1235
2016-08-24T08:19:55.019Z,1275
2016-08-24T08:20:53.620Z,1190
2016-08-24T08:21:54.336Z,1055
2016-08-24T08:22:53.643Z,955
2016-08-24T08:23:53.644Z,865
2016-08-24T08:24:54.355Z,870
2016-08-24T08:25:54.371Z,790
2016-08-24T08:26:55.104Z,715
2016-08-24T08:27:55.088Z,670
2016-08-24T08:28:54.396Z,710
2016-08-24T08:29:55.105Z,765
2016-08-24T08:30:55.111Z,695
2016-08-24T08:31:55.128Z,655
2016-08-24T08:32:55.133Z,735
2016-08-24T08:33:54.436Z,670
2016-08-24T08:34:54.440Z,430
2016-08-24T08:35:54.456Z,330
2016-08-24T08:36:54.456Z,255
2016-08-24T08:37:54.468Z,185
2016-08-24T08:38:55.181Z,155
2016-08-24T08:39:55.188Z,145
2016-08-24T08:40:55.200Z,145
2016-08-24T08:41:54.500Z,140
2016-08-24T08:42:53.821Z,135
2016-08-24T08:43:54.516Z,135
2016-08-24T08:44:55.237Z,130
2016-08-24T08:45:55.237Z,130
2016-08-24T08:46:55.252Z,130
2016-08-24T08:47:54.553Z,125
2016-08-24T08:48:55.269Z,125
2016-08-24T08:49:53.861Z,125
2016-08-24T08:50:55.280Z,120
2016-08-24T08:51:55.285Z,120
2016-08-24T08:52:54.585Z,120
2016-08-24T08:53:55.297Z,120
2016-08-24T08:54:54.617Z,115
2016-08-24T08:55:55.313Z,115
2016-08-24T08:56:55.321Z,115
2016-08-24T08:57:54.634Z,115
2016-08-24T08:58:55.349Z,115
2016-08-24T08:59:54.641Z,110
2016-08-24T09:00:53.974Z,110
2016-08-24T09:01:54.657Z,110
2016-08-24T09:02:55.369Z,110
2016-08-24T09:03:54.670Z,110
2016-08-24T09:04:55.385Z,110
2016-08-24T09:05:55.386Z,110
2016-08-24T09:06:54.002Z,105
2016-08-24T09:07:53.989Z,105
2016-08-24T09:08:54.703Z,105
2016-08-24T09:09:55.414Z,105
2016-08-24T09:10:55.419Z,105
2016-08-24T09:11:54.722Z,105
2016-08-24T09:12:54.729Z,105
2016-08-24T09:13:55.442Z,100
2016-08-24T09:14:54.758Z,100
2016-08-24T09:15:55.454Z,100
2016-08-24T09:16:54.764Z,95
2016-08-24T09:17:54.769Z,95
2016-08-24T09:18:54.110Z,95
2016-08-24T09:19:54.774Z,95
2016-08-24T09:20:55.486Z,95
2016-08-24T09:21:55.498Z,95
2016-08-24T09:22:54.946Z,95
2016-08-24T09:23:55.503Z,95
2016-08-24T09:24:54.114Z,95
2016-08-24T09:25:54.111Z,95
2016-08-24T09:26:55.522Z,95
2016-08-24T09:27:55.526Z,95
2016-08-24T09:28:55.535Z,95
2016-08-24T09:29:54.843Z,95
2016-08-24T09:30:55.546Z,95
2016-08-24T09:31:55.566Z,95
2016-08-24T09:32:55.555Z,95
2016-08-24T09:33:54.218Z,95
2016-08-24T09:34:55.567Z,95
2016-08-24T09:35:54.871Z,95
2016-08-24T09:36:55.578Z,95
2016-08-24T09:37:54.879Z,95
2016-08-24T09:38:55.591Z,90
2016-08-24T09:39:54.895Z,90
2016-08-24T09:40:54.904Z,90
2016-08-24T09:41:55.607Z,90
2016-08-24T09:42:55.619Z,90
2016-08-24T09:43:54.912Z,90
2016-08-24T09:44:55.632Z,90
2016-08-24T09:45:55.123Z,90
2016-08-24T09:46:54.931Z,90
2016-08-24T09:47:55.644Z,90
2016-08-24T09:48:55.648Z,90
2016-08-24T09:49:54.247Z,90
2016-08-24T09:50:55.660Z,90
2016-08-24T09:51:55.660Z,90
2016-08-24T09:52:54.963Z,90
2016-08-24T09:53:55.672Z,90
2016-08-24T09:54:54.971Z,90
2016-08-24T09:55:55.683Z,90
2016-08-24T09:56:55.683Z,90
2016-08-24T09:57:54.984Z,90
2016-08-24T09:58:55.696Z,90
2016-08-24T09:59:55.720Z,90
2016-08-24T10:00:55.707Z,90
2016-08-24T10:01:55.004Z,90
2016-08-24T10:02:55.716Z,90
2016-08-24T10:03:55.732Z,90
2016-08-24T10:04:55.019Z,90
2016-08-24T10:05:55.724Z,90
2016-08-24T10:06:55.028Z,90
2016-08-24T10:07:55.739Z,90
2016-08-24T10:08:55.740Z,90
2016-08-24T10:09:55.752Z,85
2016-08-24T10:10:55.044Z,90
2016-08-24T10:11:55.760Z,90
2016-08-24T10:12:55.064Z,90
2016-08-24T10:13:55.059Z,90
2016-08-24T10:14:55.112Z,85
2016-08-24T10:15:54.365Z,85
2016-08-24T10:16:55.072Z,85
2016-08-24T10:17:54.384Z,85
2016-08-24T10:18:55.084Z,85
2016-08-24T10:19:55.088Z,85
2016-08-24T10:20:55.100Z,85
2016-08-24T10:21:55.799Z,85
2016-08-24T10:22:55.104Z,85
2016-08-24T10:23:55.816Z,85
2016-08-24T10:24:55.820Z,85
2016-08-24T10:25:55.821Z,85
2016-08-24T10:26:55.820Z,85
2016-08-24T10:27:55.828Z,85
2016-08-24T10:28:53.715Z,85
2016-08-24T10:29:55.133Z,85
2016-08-24T10:30:55.135Z,85
2016-08-24T10:31:55.844Z,85
2016-08-24T10:32:55.849Z,85
2016-08-24T10:33:55.148Z,85
2016-08-24T10:34:55.856Z,85
2016-08-24T10:35:55.156Z,85
2016-08-24T10:36:55.864Z,85
2016-08-24T10:37:55.317Z,85
2016-08-24T10:38:55.177Z,85
2016-08-24T10:39:55.881Z,85
2016-08-24T10:40:55.885Z,85
2016-08-24T10:41:55.185Z,85
2016-08-24T10:42:55.888Z,85
2016-08-24T10:43:55.901Z,85
2016-08-24T10:44:55.896Z,85
2016-08-24T10:45:54.493Z,85
2016-08-24T10:46:55.905Z,85
2016-08-24T10:47:55.912Z,85
2016-08-24T10:48:55.209Z,85
2016-08-24T10:49:55.925Z,85
2016-08-24T10:50:55.220Z,85
2016-08-24T10:51:55.925Z,85
2016-08-24T10:52:55.938Z,85
2016-08-24T10:53:55.229Z,85
2016-08-24T10:54:55.937Z,85
2016-08-24T10:55:55.941Z,85
2016-08-24T10:56:55.245Z,85
2016-08-24T10:57:54.545Z,80
2016-08-24T10:58:55.249Z,80
2016-08-24T10:59:55.957Z,80
2016-08-24T11:00:55.261Z,80
2016-08-24T11:01:55.263Z,80
2016-08-24T11:02:54.573Z,80
2016-08-24T11:03:55.269Z,80
2016-08-24T11:04:55.993Z,80
2016-08-24T11:05:55.982Z,80
2016-08-24T11:06:55.281Z,80
2016-08-24T11:07:55.989Z,80
2016-08-24T11:08:56.006Z,80
2016-08-24T11:09:55.994Z,80
2016-08-24T11:10:55.298Z,80
2016-08-24T11:11:54.606Z,80
2016-08-24T11:12:54.597Z,80
2016-08-24T11:13:56.009Z,80
2016-08-24T11:14:56.014Z,80
2016-08-24T11:15:55.314Z,80
2016-08-24T11:16:56.042Z,80
2016-08-24T11:17:55.326Z,80
2016-08-24T11:18:56.046Z,80
2016-08-24T11:19:55.341Z,80
2016-08-24T11:20:55.346Z,80
2016-08-24T11:21:56.042Z,80
2016-08-24T11:22:56.046Z,80
2016-08-24T11:23:56.062Z,80
2016-08-24T11:24:56.054Z,80
2016-08-24T11:25:56.059Z,80
2016-08-24T11:26:56.062Z,80
2016-08-24T11:27:56.063Z,80
2016-08-24T11:28:56.073Z,80
2016-08-24T11:29:55.370Z,80
2016-08-24T11:30:55.382Z,80
2016-08-24T11:31:54.675Z,75
2016-08-24T11:32:56.082Z,75
2016-08-24T11:33:56.187Z,75
2016-08-24T11:34:55.390Z,75
2016-08-24T11:35:56.111Z,75
2016-08-24T11:36:55.395Z,75
2016-08-24T11:37:53.994Z,75
2016-08-24T11:38:56.108Z,75
2016-08-24T11:39:54.699Z,75
2016-08-24T11:40:55.408Z,75
2016-08-24T11:41:55.414Z,75
2016-08-24T11:42:55.419Z,75
2016-08-24T11:43:56.142Z,75
2016-08-24T11:44:56.150Z,75
2016-08-24T11:45:56.126Z,75
2016-08-24T11:46:55.435Z,75
2016-08-24T11:47:56.135Z,75
2016-08-24T11:48:55.438Z,75
2016-08-24T11:49:56.147Z,75
2016-08-24T11:50:55.443Z,75
2016-08-24T11:51:55.446Z,75
2016-08-24T11:52:54.747Z,75
2016-08-24T11:53:56.164Z,75
2016-08-24T11:54:56.163Z,75
2016-08-24T11:55:55.463Z,75
2016-08-24T11:56:55.467Z,75
2016-08-24T11:57:56.179Z,75
2016-08-24T11:58:54.060Z,75
2016-08-24T11:59:56.191Z,75
2016-08-24T12:00:56.183Z,75
2016-08-24T12:01:55.483Z,75
2016-08-24T12:02:56.192Z,75
2016-08-24T12:03:56.191Z,70
2016-08-24T12:04:55.496Z,70
2016-08-24T12:05:56.199Z,70
2016-08-24T12:06:54.096Z,70
2016-08-24T12:07:56.219Z,70
2016-08-24T12:08:55.511Z,70
2016-08-24T12:09:56.228Z,70
2016-08-24T12:10:56.223Z,70
2016-08-24T12:11:56.219Z,70
2016-08-24T12:12:55.523Z,70
2016-08-24T12:13:55.524Z,70
2016-08-24T12:14:55.528Z,70
2016-08-24T12:15:55.544Z,70
2016-08-24T12:16:55.532Z,70
2016-08-24T12:17:56.240Z,70
2016-08-24T12:18:56.244Z,70
2016-08-24T12:19:54.844Z,70
2016-08-24T12:20:56.252Z,70
2016-08-24T12:21:55.552Z,70
2016-08-24T12:22:55.553Z,70
2016-08-24T12:23:55.557Z,70
2016-08-24T12:24:55.559Z,70
2016-08-24T12:25:56.269Z,70
2016-08-24T12:26:56.272Z,70
2016-08-24T12:27:56.276Z,70
2016-08-24T12:28:56.280Z,70
2016-08-24T12:29:55.589Z,70
2016-08-24T12:30:55.579Z,65
2016-08-24T12:31:54.888Z,65
2016-08-24T12:32:56.297Z,65
2016-08-24T12:33:55.589Z,65
2016-08-24T12:34:56.301Z,65
2016-08-24T12:35:54.897Z,65
2016-08-24T12:36:54.896Z,65
2016-08-24T12:37:56.317Z,65
2016-08-24T12:38:56.313Z,65
2016-08-24T12:39:56.317Z,65
2016-08-24T12:40:56.325Z,65
2016-08-24T12:41:56.329Z,65
2016-08-24T12:42:55.629Z,65
2016-08-24T12:43:56.328Z,65
2016-08-24T12:44:56.341Z,65
2016-08-24T12:45:55.636Z,65
2016-08-24T12:46:55.648Z,65
2016-08-24T12:47:56.340Z,65
2016-08-24T12:48:56.345Z,65
2016-08-24T12:49:55.656Z,65
2016-08-24T12:50:56.348Z,65
2016-08-24T12:51:56.353Z,65
2016-08-24T12:52:56.356Z,65
2016-08-24T12:53:55.664Z,65
2016-08-24T12:54:55.661Z,65
2016-08-24T12:55:55.665Z,65
2016-08-24T12:56:56.370Z,65
2016-08-24T12:57:56.373Z,65
2016-08-24T12:58:56.385Z,65
2016-08-24T12:59:55.681Z,65
2016-08-24T13:00:56.381Z,65
2016-08-24T13:01:56.385Z,60
2016-08-24T13:02:56.390Z,60
2016-08-24T13:03:55.702Z,60
2016-08-24T13:04:55.694Z,60
2016-08-24T13:05:56.401Z,60
2016-08-24T13:06:55.694Z,60
2016-08-24T13:07:56.413Z,60
2016-08-24T13:08:56.418Z,60
2016-08-24T13:09:56.421Z,60
2016-08-24T13:10:56.417Z,60
2016-08-24T13:11:55.202Z,60
2016-08-24T13:12:55.723Z,60
2016-08-24T13:13:55.734Z,60
2016-08-24T13:14:56.429Z,60
2016-08-24T13:15:55.744Z,60
2016-08-24T13:16:55.733Z,60
2016-08-24T13:17:55.741Z,60
2016-08-24T13:18:55.737Z,60
2016-08-24T13:19:56.446Z,60
2016-08-24T13:20:56.454Z,60
2016-08-24T13:21:56.449Z,60
2016-08-24T13:22:56.469Z,60
2016-08-24T13:23:55.754Z,60
2016-08-24T13:24:56.457Z,60
2016-08-24T13:25:55.053Z,60
2016-08-24T13:26:55.066Z,60
2016-08-24T13:27:56.470Z,60
2016-08-24T13:28:56.478Z,60
2016-08-24T13:29:55.778Z,60
2016-08-24T13:30:55.774Z,60
2016-08-24T13:31:56.481Z,60
2016-08-24T13:32:56.487Z,60
2016-08-24T13:33:56.591Z,60
2016-08-24T13:34:55.791Z,60
2016-08-24T13:35:56.494Z,60
2016-08-24T13:36:55.793Z,60
2016-08-24T13:37:56.505Z,60
2016-08-24T13:38:56.502Z,55
2016-08-24T13:39:55.802Z,55
2016-08-24T13:40:55.814Z,55
2016-08-24T13:41:55.107Z,55
2016-08-24T13:42:55.818Z,55
2016-08-24T13:43:56.518Z,55
2016-08-24T13:44:56.535Z,55
2016-08-24T13:45:55.822Z,55
2016-08-24T13:46:55.826Z,55
2016-08-24T13:47:56.530Z,55
2016-08-24T13:48:55.834Z,55
2016-08-24T13:49:56.554Z,55
2016-08-24T13:50:56.552Z,55
2016-08-24T13:51:55.138Z,55
2016-08-24T13:52:56.547Z,55
2016-08-24T13:53:55.874Z,55
2016-08-24T13:54:56.559Z,55
2016-08-24T13:55:56.562Z,55
2016-08-24T13:56:55.447Z,55
2016-08-24T13:57:55.863Z,55
2016-08-24T13:58:56.567Z,55
2016-08-24T13:59:56.571Z,55
2016-08-24T14:00:56.587Z,55
2016-08-24T14:01:55.875Z,55
2016-08-24T14:02:56.579Z,55
2016-08-24T14:03:56.579Z,55
2016-08-24T14:04:55.178Z,55
2016-08-24T14:05:56.591Z,55
2016-08-24T14:06:56.591Z,55
2016-08-24T14:07:56.591Z,55
2016-08-24T14:08:55.895Z,55
2016-08-24T14:09:53.795Z,55
2016-08-24T14:10:56.607Z,55
2016-08-24T14:11:55.899Z,55
2016-08-24T14:12:55.910Z,55
2016-08-24T14:13:56.611Z,55
2016-08-24T14:14:56.616Z,55